Time;durP1;ratioP1;P1;durP2;ratioP2;P2;SDS_P1;SDS_P2;PMS_P1;PMS_P2;Temp;Humidity;BMP_temperature;BMP_pressure;BME280_temperature;BME280_humidity;BME280_pressure;Samples;Min_cycle;Max_cycle;Signal;HPM_P1;HPM_P2
2023/01/25 00:01:42;;;;;;;35.22;21.20;;;2.20;99.90;;;;;;5113637;28;20092;-89
2023/01/25 00:04:08;;;;;;;38.55;22.73;;;2.20;99.90;;;;;;5096658;28;20130;-90
2023/01/25 00:06:33;;;;;;;32.45;20.83;;;2.20;99.90;;;;;;5104882;28;20035;-90
2023/01/25 00:08:59;;;;;;;32.47;20.80;;;2.20;99.90;;;;;;5130933;27;20039;-90
2023/01/25 00:11:25;;;;;;;33.75;20.85;;;2.20;99.90;;;;;;5130155;27;20027;-90
2023/01/25 00:13:55;;;;;;;33.15;20.60;;;2.20;99.90;;;;;;5113040;28;20039;-89
2023/01/25 00:16:21;;;;;;;35.63;21.95;;;2.20;99.90;;;;;;5115102;27;20520;-90
2023/01/25 00:18:47;;;;;;;34.15;21.25;;;2.20;99.90;;;;;;5127438;27;20035;-89
2023/01/25 00:21:16;;;;;;;37.38;21.25;;;2.20;99.90;;;;;;5133999;27;20031;-89
2023/01/25 00:23:42;;;;;;;34.88;20.70;;;2.20;99.90;;;;;;5132904;27;20403;-91
2023/01/25 00:26:07;;;;;;;32.80;20.05;;;2.20;99.90;;;;;;5116851;27;20031;-89
2023/01/25 00:28:33;;;;;;;34.00;21.17;;;2.20;99.90;;;;;;5115788;27;20514;-90
2023/01/25 00:31:03;;;;;;;32.92;21.33;;;2.10;99.90;;;;;;5112095;28;20039;-90
2023/01/25 00:33:37;;;;;;;36.25;22.08;;;2.10;99.90;;;;;;5112942;28;20036;-90
2023/01/25 00:36:31;;;;;;;35.97;21.67;;;2.20;99.90;;;;;;5130562;27;20039;-90
2023/01/25 00:38:57;;;;;;;37.95;21.40;;;2.10;99.90;;;;;;5104235;28;20088;-90
2023/01/25 00:41:23;;;;;;;38.70;21.60;;;2.10;99.90;;;;;;5130349;27;20164;-90
2023/01/25 00:43:49;;;;;;;36.60;20.90;;;2.10;99.90;;;;;;5120605;27;20102;-90
2023/01/25 00:46:16;;;;;;;37.03;21.70;;;2.00;99.90;;;;;;5116350;27;20039;-90
2023/01/25 00:48:42;;;;;;;37.17;22.50;;;2.00;99.90;;;;;;5133321;27;20042;-90
2023/01/25 00:51:07;;;;;;;37.60;22.85;;;2.00;99.90;;;;;;5115943;27;20715;-90
2023/01/25 00:53:34;;;;;;;37.58;22.33;;;2.10;99.90;;;;;;5132339;27;20070;-90
2023/01/25 00:55:59;;;;;;;36.65;21.92;;;2.10;99.90;;;;;;5102175;28;20050;-90
2023/01/25 00:58:25;;;;;;;37.10;21.42;;;2.10;99.90;;;;;;5095541;28;20044;-90
2023/01/25 01:00:53;;;;;;;37.33;21.20;;;2.10;99.90;;;;;;5119932;27;20031;-90
2023/01/25 01:03:18;;;;;;;35.75;20.85;;;2.10;99.90;;;;;;5113716;27;20035;-90
2023/01/25 01:05:44;;;;;;;39.35;23.27;;;2.10;99.90;;;;;;5112826;28;20035;-90
2023/01/25 01:08:14;;;;;;;35.50;21.55;;;2.10;99.90;;;;;;5129502;27;20125;-90
2023/01/25 01:10:40;;;;;;;33.22;19.73;;;2.10;99.90;;;;;;5099669;28;20254;-91
2023/01/25 01:13:06;;;;;;;37.45;22.05;;;2.00;99.90;;;;;;5091843;28;20842;-90
2023/01/25 01:15:35;;;;;;;36.25;21.23;;;2.10;99.90;;;;;;5129146;27;20123;-90
2023/01/25 01:18:01;;;;;;;35.42;22.48;;;2.00;99.90;;;;;;5095286;27;20039;-90
2023/01/25 01:20:27;;;;;;;35.53;21.83;;;2.00;99.90;;;;;;5132752;27;20039;-90
2023/01/25 01:22:55;;;;;;;33.63;20.38;;;2.10;99.90;;;;;;5115008;27;20404;-90
2023/01/25 01:25:21;;;;;;;35.90;21.25;;;2.00;99.90;;;;;;5113506;27;20122;-90
2023/01/25 01:27:46;;;;;;;33.50;20.02;;;2.00;99.90;;;;;;5095650;28;20118;-90
2023/01/25 01:30:12;;;;;;;33.88;20.77;;;2.00;99.90;;;;;;5112003;28;20062;-91
2023/01/25 01:32:38;;;;;;;32.88;20.27;;;2.00;99.90;;;;;;5093733;28;20032;-91
2023/01/25 01:35:04;;;;;;;31.45;19.38;;;2.00;99.90;;;;;;5112518;27;20047;-90
2023/01/25 01:37:30;;;;;;;34.08;21.27;;;2.00;99.90;;;;;;5111352;28;20039;-90
2023/01/25 01:39:55;;;;;;;33.15;20.25;;;2.00;99.90;;;;;;5097525;28;20036;-90
2023/01/25 01:42:21;;;;;;;33.60;20.83;;;2.00;99.90;;;;;;5094137;28;20038;-90
2023/01/25 01:44:54;;;;;;;39.40;22.33;;;2.00;99.90;;;;;;5092428;28;20113;-89
2023/01/25 01:47:36;;;;;;;34.95;20.65;;;2.00;99.90;;;;;;5094883;28;20039;-90
2023/01/25 01:50:13;;;;;;;33.35;20.42;;;2.00;99.90;;;;;;5102788;27;20050;-90
2023/01/25 01:52:39;;;;;;;34.50;20.88;;;2.00;99.90;;;;;;5093992;28;20046;-90
2023/01/25 01:55:16;;;;;;;37.95;20.60;;;2.00;99.90;;;;;;5127929;27;20031;-90
2023/01/25 01:58:02;;;;;;;34.10;19.90;;;2.00;99.90;;;;;;5125455;27;20046;-90
2023/01/25 02:00:39;;;;;;;35.90;22.08;;;2.00;99.90;;;;;;5108828;27;20058;-90
2023/01/25 02:03:06;;;;;;;33.85;19.88;;;2.00;99.90;;;;;;5114202;27;20682;-89
2023/01/25 02:05:55;;;;;;;35.38;20.55;;;2.00;99.90;;;;;;5114951;27;20035;-90
2023/01/25 02:08:23;;;;;;;34.42;20.42;;;2.00;99.90;;;;;;5114126;27;20045;-90
2023/01/25 02:10:49;;;;;;;34.90;20.73;;;2.00;99.90;;;;;;5114579;27;20540;-90
2023/01/25 02:13:20;;;;;;;31.25;18.88;;;2.00;99.90;;;;;;5130330;27;20039;-90
2023/01/25 02:15:49;;;;;;;29.45;17.42;;;2.00;99.90;;;;;;5094198;28;20085;-90
2023/01/25 02:18:16;;;;;;;33.70;20.88;;;1.90;99.90;;;;;;5102624;27;20035;-89
2023/01/25 02:20:44;;;;;;;30.83;18.85;;;1.90;99.90;;;;;;5131485;27;20549;-90
2023/01/25 02:23:34;;;;;;;30.00;18.35;;;1.90;99.90;;;;;;5113910;27;20035;-90
2023/01/25 02:26:02;;;;;;;30.15;18.27;;;1.90;99.90;;;;;;5098140;28;20035;-90
2023/01/25 02:28:35;;;;;;;32.03;18.88;;;1.80;99.90;;;;;;5093450;28;20073;-89
2023/01/25 02:31:01;;;;;;;33.10;20.30;;;1.80;99.90;;;;;;5102495;28;20039;-90
2023/01/25 02:33:27;;;;;;;32.72;19.35;;;1.80;99.90;;;;;;5110364;28;20043;-90
2023/01/25 02:35:58;;;;;;;32.72;20.15;;;1.80;99.90;;;;;;5110980;27;20483;-90
2023/01/25 02:38:24;;;;;;;33.17;19.85;;;1.70;99.90;;;;;;5113598;27;20130;-89
2023/01/25 02:41:02;;;;;;;34.58;19.70;;;1.70;99.90;;;;;;5131154;27;20125;-89
2023/01/25 02:43:30;;;;;;;32.58;20.23;;;1.70;99.90;;;;;;5104471;27;20568;-90
2023/01/25 02:46:02;;;;;;;34.50;20.60;;;1.70;99.90;;;;;;5114287;27;20087;-90
2023/01/25 02:48:27;;;;;;;35.83;21.42;;;1.70;99.90;;;;;;5113704;27;20035;-90
2023/01/25 02:50:53;;;;;;;36.22;21.65;;;1.70;99.90;;;;;;5098173;28;20042;-90
2023/01/25 02:53:19;;;;;;;33.55;19.95;;;1.80;99.90;;;;;;5093624;28;20042;-89
2023/01/25 02:55:44;;;;;;;36.53;21.00;;;1.70;99.90;;;;;;5126530;27;20038;-90
2023/01/25 02:58:10;;;;;;;37.25;20.70;;;1.70;99.90;;;;;;5093653;28;20071;-89
2023/01/25 03:00:35;;;;;;;38.70;22.58;;;1.70;99.90;;;;;;5129865;27;20045;-89
2023/01/25 03:03:01;;;;;;;35.60;21.02;;;1.70;99.90;;;;;;5130418;27;20035;-89
2023/01/25 03:05:26;;;;;;;36.50;21.17;;;1.70;99.90;;;;;;5131089;28;20037;-89
2023/01/25 03:07:52;;;;;;;37.22;22.52;;;1.70;99.90;;;;;;5125628;28;20100;-89
2023/01/25 03:10:18;;;;;;;38.33;23.25;;;1.70;99.90;;;;;;5093750;28;20129;-89
2023/01/25 03:12:43;;;;;;;32.65;19.45;;;1.80;99.90;;;;;;5078654;28;20381;-89
2023/01/25 03:15:09;;;;;;;37.00;22.25;;;1.80;99.90;;;;;;5115745;28;20093;-90
2023/01/25 03:17:34;;;;;;;38.85;23.70;;;1.70;99.90;;;;;;5110270;28;20084;-90
2023/01/25 03:20:00;;;;;;;36.05;21.77;;;1.70;99.90;;;;;;5126609;28;20089;-89
2023/01/25 03:22:26;;;;;;;35.47;22.30;;;1.80;99.90;;;;;;5110093;28;20453;-90
2023/01/25 03:24:51;;;;;;;37.80;22.40;;;1.80;99.90;;;;;;5110458;28;20040;-89
2023/01/25 03:27:17;;;;;;;38.05;21.27;;;1.70;99.90;;;;;;5113942;28;20071;-90
2023/01/25 03:29:44;;;;;;;34.53;20.75;;;1.70;99.90;;;;;;5113732;28;20679;-90
2023/01/25 03:32:10;;;;;;;39.92;22.58;;;1.70;99.90;;;;;;5112699;28;20039;-89
2023/01/25 03:34:36;;;;;;;39.17;22.63;;;1.70;99.90;;;;;;5110801;28;20043;-89
2023/01/25 03:37:02;;;;;;;37.78;22.60;;;1.70;99.90;;;;;;5093255;28;20173;-89
2023/01/25 03:39:28;;;;;;;41.58;23.27;;;1.70;99.90;;;;;;5118234;28;20035;-90
2023/01/25 03:41:53;;;;;;;38.88;22.63;;;1.70;99.90;;;;;;5113524;28;20042;-89
2023/01/25 03:44:19;;;;;;;36.85;20.10;;;1.70;99.90;;;;;;5113188;28;20023;-90
2023/01/25 03:46:45;;;;;;;32.17;19.55;;;1.70;99.90;;;;;;5098083;28;20116;-89
2023/01/25 03:49:11;;;;;;;32.67;18.70;;;1.60;99.90;;;;;;5093216;28;20400;-89
2023/01/25 03:51:36;;;;;;;33.08;19.92;;;1.60;99.90;;;;;;5120264;28;20501;-90
2023/01/25 03:54:02;;;;;;;35.00;19.33;;;1.50;99.90;;;;;;5089098;28;20036;-90
2023/01/25 03:56:28;;;;;;;35.85;21.55;;;1.50;99.90;;;;;;5093623;28;20035;-90
2023/01/25 03:58:53;;;;;;;34.70;20.58;;;1.40;99.90;;;;;;5109988;28;20052;-90
2023/01/25 04:01:19;;;;;;;35.92;20.02;;;1.40;99.90;;;;;;5128155;28;20047;-90
2023/01/25 04:03:45;;;;;;;30.05;18.33;;;1.40;99.90;;;;;;5131810;27;20644;-90
2023/01/25 04:06:10;;;;;;;31.17;19.00;;;1.40;99.90;;;;;;5134327;27;20027;-90
2023/01/25 04:08:36;;;;;;;34.38;19.23;;;1.30;99.90;;;;;;5115870;27;20043;-89
2023/01/25 04:11:07;;;;;;;32.10;19.27;;;1.40;99.90;;;;;;5117100;27;20043;-90
2023/01/25 04:13:36;;;;;;;29.45;18.20;;;1.30;99.90;;;;;;5115993;27;20062;-90
2023/01/25 04:16:03;;;;;;;34.92;19.80;;;1.30;99.90;;;;;;5098537;28;20408;-89
2023/01/25 04:18:28;;;;;;;33.70;19.90;;;1.30;99.90;;;;;;5096681;28;20036;-89
2023/01/25 04:20:55;;;;;;;33.28;18.40;;;1.30;99.90;;;;;;5121403;27;20031;-89
2023/01/25 04:23:22;;;;;;;33.38;18.95;;;1.30;99.90;;;;;;5096100;28;20035;-90
2023/01/25 04:25:53;;;;;;;29.52;17.45;;;1.30;99.90;;;;;;5113849;28;20040;-90
2023/01/25 04:28:18;;;;;;;31.13;18.65;;;1.30;99.90;;;;;;5104486;27;20136;-90
2023/01/25 04:30:44;;;;;;;32.28;18.40;;;1.30;99.90;;;;;;5134056;27;20488;-89
2023/01/25 04:33:10;;;;;;;34.25;19.15;;;1.30;99.90;;;;;;5132897;27;20039;-90
2023/01/25 04:35:36;;;;;;;30.85;17.85;;;1.30;99.90;;;;;;5119436;27;20071;-90
2023/01/25 04:38:03;;;;;;;27.10;15.07;;;1.30;99.90;;;;;;5096053;28;20401;-90
2023/01/25 04:40:29;;;;;;;32.20;17.80;;;1.30;99.90;;;;;;5146714;27;20050;-89
2023/01/25 04:42:54;;;;;;;30.50;16.33;;;1.30;99.90;;;;;;5112542;28;20484;-90
2023/01/25 04:45:20;;;;;;;28.88;15.75;;;1.30;99.90;;;;;;5129658;27;20109;-89
2023/01/25 04:47:46;;;;;;;30.45;17.83;;;1.30;99.90;;;;;;5113993;27;20129;-90
2023/01/25 04:50:12;;;;;;;30.90;16.48;;;1.30;99.90;;;;;;5116404;27;20118;-89
2023/01/25 04:52:37;;;;;;;32.80;18.23;;;1.30;99.90;;;;;;5114852;27;20038;-89
2023/01/25 04:55:03;;;;;;;34.22;18.95;;;1.30;99.90;;;;;;5116262;27;20043;-89
2023/01/25 04:57:29;;;;;;;30.65;17.20;;;1.30;99.90;;;;;;5115256;27;22022;-89
2023/01/25 04:59:54;;;;;;;26.65;15.82;;;1.20;99.90;;;;;;5118272;27;20042;-89
2023/01/25 05:02:20;;;;;;;31.15;17.10;;;1.10;99.90;;;;;;5129801;27;20202;-89
2023/01/25 05:04:45;;;;;;;31.80;18.15;;;1.10;99.90;;;;;;5113703;27;20074;-90
2023/01/25 05:07:11;;;;;;;31.13;17.05;;;1.10;99.90;;;;;;5116408;27;20031;-89
2023/01/25 05:09:37;;;;;;;30.92;16.80;;;1.00;99.90;;;;;;5115356;27;20504;-90
2023/01/25 05:12:02;;;;;;;34.40;19.08;;;1.00;99.90;;;;;;5095500;28;20039;-89
2023/01/25 05:14:28;;;;;;;31.42;17.52;;;0.90;99.90;;;;;;5129126;27;20043;-89
2023/01/25 05:16:54;;;;;;;28.23;14.43;;;0.90;99.90;;;;;;5128740;27;20527;-89
2023/01/25 05:19:19;;;;;;;29.50;14.60;;;0.90;99.90;;;;;;5129407;27;20122;-89
2023/01/25 05:21:57;;;;;;;29.67;15.10;;;0.80;99.90;;;;;;5111924;28;20039;-89
2023/01/25 05:24:23;;;;;;;32.00;17.80;;;0.80;99.90;;;;;;5120920;27;20393;-89
2023/01/25 05:27:04;;;;;;;30.70;15.98;;;0.80;99.90;;;;;;5111834;28;20085;-89
2023/01/25 05:29:30;;;;;;;28.65;15.13;;;0.80;99.90;;;;;;5116292;27;20477;-89
2023/01/25 05:31:57;;;;;;;34.45;18.92;;;0.80;99.90;;;;;;5099660;28;20408;-90
2023/01/25 05:34:22;;;;;;;33.75;18.38;;;0.90;99.90;;;;;;5094745;28;20126;-89
2023/01/25 05:36:48;;;;;;;33.00;18.73;;;0.80;99.90;;;;;;5119911;27;20130;-89
2023/01/25 05:39:13;;;;;;;32.75;18.75;;;0.80;99.90;;;;;;5132315;27;20039;-90
2023/01/25 05:41:39;;;;;;;36.97;19.02;;;0.80;99.90;;;;;;5115279;27;20091;-89
2023/01/25 05:44:04;;;;;;;33.72;18.25;;;0.80;99.90;;;;;;5104127;28;20066;-90
2023/01/25 05:46:30;;;;;;;30.48;16.42;;;0.80;99.90;;;;;;5111906;28;20031;-89
2023/01/25 05:48:56;;;;;;;34.03;19.42;;;0.80;99.90;;;;;;5111468;28;20502;-90
2023/01/25 05:51:21;;;;;;;34.00;19.90;;;0.80;99.90;;;;;;5111886;28;20127;-89
2023/01/25 05:53:47;;;;;;;34.72;17.25;;;0.80;99.90;;;;;;5119028;27;20556;-89
2023/01/25 05:56:12;;;;;;;33.33;17.92;;;0.90;99.90;;;;;;5094525;28;20039;-89
2023/01/25 05:58:38;;;;;;;33.53;18.73;;;0.90;99.90;;;;;;5117227;27;20039;-90
2023/01/25 06:01:06;;;;;;;34.40;19.27;;;0.90;99.90;;;;;;5114301;27;20405;-89
2023/01/25 06:03:33;;;;;;;31.15;16.92;;;0.90;99.90;;;;;;5094519;28;20046;-89
2023/01/25 06:06:01;;;;;;;30.45;17.88;;;0.90;99.90;;;;;;5109690;27;20038;-89
2023/01/25 06:08:30;;;;;;;32.60;18.10;;;1.00;99.90;;;;;;5115121;27;20043;-89
2023/01/25 06:10:56;;;;;;;32.15;17.63;;;0.90;99.90;;;;;;5114679;27;20035;-89
2023/01/25 06:13:22;;;;;;;33.75;18.55;;;1.00;99.90;;;;;;5113776;27;20490;-89
2023/01/25 06:15:55;;;;;;;32.78;18.10;;;1.00;99.90;;;;;;5114447;27;20039;-89
2023/01/25 06:18:21;;;;;;;;;;;1.00;99.90;;;;;;5114453;27;20118;-89
2023/01/25 06:20:47;;;;;;;28.42;15.63;;;1.00;99.90;;;;;;5131091;27;20023;-89
2023/01/25 06:23:13;;;;;;;31.40;17.13;;;0.90;99.90;;;;;;5114328;27;20047;-89
2023/01/25 06:25:38;;;;;;;26.27;15.50;;;0.90;99.90;;;;;;5126378;27;20081;-89
2023/01/25 06:28:04;;;;;;;27.42;15.68;;;1.00;99.90;;;;;;5128317;27;20085;-89
2023/01/25 06:30:30;;;;;;;27.92;16.20;;;0.90;99.90;;;;;;5094401;28;20031;-90
2023/01/25 06:32:59;;;;;;;29.13;16.85;;;0.90;99.90;;;;;;5127044;27;20488;-89
2023/01/25 06:35:25;;;;;;;29.10;16.83;;;0.90;99.90;;;;;;5093671;28;20489;-89
2023/01/25 06:37:50;;;;;;;28.98;15.68;;;0.90;99.90;;;;;;5128434;27;20061;-89
2023/01/25 06:40:16;;;;;;;28.55;15.23;;;0.90;99.90;;;;;;5113587;27;20042;-89
2023/01/25 06:42:42;;;;;;;29.02;14.73;;;0.90;99.90;;;;;;5130976;27;20039;-90
2023/01/25 06:45:08;;;;;;;27.02;14.30;;;0.80;99.90;;;;;;5130799;27;20046;-89
2023/01/25 06:47:34;;;;;;;27.77;16.08;;;0.70;99.90;;;;;;5114238;27;20122;-90
2023/01/25 06:50:00;;;;;;;27.60;15.35;;;0.70;99.90;;;;;;5130823;27;20441;-90
2023/01/25 06:52:25;;;;;;;26.55;14.43;;;0.70;99.90;;;;;;5114690;27;20400;-90
2023/01/25 06:54:51;;;;;;;29.13;15.10;;;0.70;99.90;;;;;;5112469;27;20508;-90
2023/01/25 06:57:16;;;;;;;28.50;14.77;;;0.60;99.90;;;;;;5099470;28;20132;-90
2023/01/25 06:59:45;;;;;;;22.30;12.80;;;0.60;99.90;;;;;;5110691;28;20035;-90
2023/01/25 07:02:14;;;;;;;28.83;16.75;;;0.60;99.90;;;;;;5126578;27;20490;-90
2023/01/25 07:04:40;;;;;;;22.30;12.23;;;0.50;99.90;;;;;;5113260;28;20035;-90
2023/01/25 07:07:09;;;;;;;23.83;12.32;;;0.50;99.90;;;;;;5113434;28;20114;-90
2023/01/25 07:09:35;;;;;;;26.10;13.63;;;0.50;99.90;;;;;;5115399;28;20126;-91
2023/01/25 07:12:03;;;;;;;26.63;14.70;;;0.50;99.90;;;;;;5093242;28;20049;-90
2023/01/25 07:14:29;;;;;;;28.13;15.40;;;0.40;99.90;;;;;;5101156;28;20488;-90
2023/01/25 07:16:55;;;;;;;25.95;14.60;;;0.50;99.90;;;;;;5113078;28;20072;-90
2023/01/25 07:19:20;;;;;;;26.58;14.20;;;0.50;99.90;;;;;;5113472;28;20032;-90
2023/01/25 07:21:46;;;;;;;27.02;14.45;;;0.50;99.90;;;;;;5130329;28;20088;-89
2023/01/25 07:24:14;;;;;;;28.55;15.60;;;0.60;99.90;;;;;;5113580;28;20076;-90
2023/01/25 07:26:40;;;;;;;27.73;15.32;;;0.60;99.90;;;;;;5129957;28;20055;-90
2023/01/25 07:29:05;;;;;;;25.70;15.23;;;0.50;99.90;;;;;;5113794;28;20080;-89
2023/01/25 07:31:31;;;;;;;28.63;15.63;;;0.50;99.90;;;;;;5131023;28;20039;-90
2023/01/25 07:33:57;;;;;;;28.13;14.82;;;0.40;99.90;;;;;;5121327;28;20126;-90
2023/01/25 07:36:23;;;;;;;28.05;14.68;;;0.50;99.90;;;;;;5092646;28;20071;-90
2023/01/25 07:38:53;;;;;;;26.25;13.95;;;0.50;99.90;;;;;;5101626;27;20043;-89
2023/01/25 07:41:19;;;;;;;25.13;14.52;;;0.50;99.90;;;;;;5116941;27;20035;-89
2023/01/25 07:43:45;;;;;;;30.00;16.50;;;0.50;99.90;;;;;;5117494;27;20031;-90
2023/01/25 07:46:12;;;;;;;28.13;14.57;;;0.50;99.90;;;;;;5116883;27;20100;-89
2023/01/25 07:48:40;;;;;;;27.85;14.93;;;0.60;99.90;;;;;;5134708;27;20035;-90
2023/01/25 07:51:11;;;;;;;30.35;15.50;;;0.50;99.90;;;;;;5135475;27;20508;-90
2023/01/25 07:53:39;;;;;;;27.70;14.98;;;0.50;99.90;;;;;;5133925;27;20043;-90
2023/01/25 07:56:05;;;;;;;26.55;14.10;;;0.50;99.90;;;;;;5135015;27;20563;-90
2023/01/25 07:58:31;;;;;;;26.17;14.95;;;0.50;99.90;;;;;;5116521;27;20127;-90
2023/01/25 08:00:57;;;;;;;27.52;15.50;;;0.50;99.90;;;;;;5117022;27;20117;-89
2023/01/25 08:03:22;;;;;;;20.73;11.13;;;0.50;99.90;;;;;;5134203;27;20053;-89
2023/01/25 08:05:48;;;;;;;20.85;11.40;;;0.50;99.90;;;;;;5133742;27;20039;-90
2023/01/25 08:08:14;;;;;;;28.30;16.23;;;0.40;99.90;;;;;;5134067;27;20046;-90
2023/01/25 08:10:39;;;;;;;29.67;16.17;;;0.40;99.90;;;;;;5133644;27;20043;-91
2023/01/25 08:13:05;;;;;;;29.83;17.17;;;0.40;99.90;;;;;;5134122;27;20038;-90
2023/01/25 08:15:31;;;;;;;29.25;15.05;;;0.40;99.90;;;;;;5107314;27;20554;-90
2023/01/25 08:17:58;;;;;;;24.20;11.80;;;0.40;99.90;;;;;;5134268;27;20047;-90
2023/01/25 08:20:24;;;;;;;22.08;12.57;;;0.40;99.90;;;;;;5115270;27;20137;-91
2023/01/25 08:22:51;;;;;;;28.30;14.25;;;0.40;99.90;;;;;;5131745;27;20629;-90
2023/01/25 08:25:16;;;;;;;29.30;15.98;;;0.40;99.90;;;;;;5115353;27;20060;-91
2023/01/25 08:27:42;;;;;;;29.35;16.40;;;0.40;99.90;;;;;;5101882;28;20511;-90
2023/01/25 08:30:09;;;;;;;28.60;15.40;;;0.40;99.90;;;;;;5090269;28;20043;-90
2023/01/25 08:32:35;;;;;;;30.10;15.63;;;0.40;99.90;;;;;;5111519;27;20103;-90
2023/01/25 08:35:00;;;;;;;32.17;15.52;;;0.40;99.90;;;;;;5133082;27;20104;-89
2023/01/25 08:37:28;;;;;;;34.05;14.95;;;0.40;99.90;;;;;;5132363;27;20454;-90
2023/01/25 08:39:56;;;;;;;27.73;14.73;;;0.30;99.90;;;;;;5102155;28;20046;-90
2023/01/25 08:42:22;;;;;;;32.10;17.05;;;0.30;99.90;;;;;;5094848;28;20044;-90
2023/01/25 08:44:48;;;;;;;28.77;14.70;;;0.30;99.90;;;;;;5105466;27;20460;-90
2023/01/25 08:47:14;;;;;;;31.40;15.30;;;0.30;99.90;;;;;;5115792;27;20031;-91
2023/01/25 08:49:39;;;;;;;29.67;16.20;;;0.20;99.90;;;;;;5115283;27;20541;-90
2023/01/25 08:52:05;;;;;;;31.98;15.20;;;0.20;99.90;;;;;;5114325;27;20100;-89
2023/01/25 08:54:30;;;;;;;32.55;16.67;;;0.20;99.90;;;;;;5132755;27;20042;-89
2023/01/25 08:56:56;;;;;;;28.90;16.02;;;0.30;99.90;;;;;;5112201;27;20070;-89
2023/01/25 08:59:22;;;;;;;33.38;16.00;;;0.20;99.90;;;;;;5094390;28;20394;-89
2023/01/25 09:01:48;;;;;;;35.78;19.40;;;0.20;99.90;;;;;;5093677;28;20027;-90
2023/01/25 09:04:13;;;;;;;30.70;15.82;;;0.20;99.90;;;;;;5098097;28;20080;-90
2023/01/25 09:06:39;;;;;;;31.83;17.88;;;0.30;99.90;;;;;;5111944;28;20024;-90
2023/01/25 09:09:07;;;;;;;31.20;15.32;;;0.20;99.90;;;;;;5095004;28;20039;-89
2023/01/25 09:11:35;;;;;;;33.55;15.77;;;0.30;99.90;;;;;;5095089;28;20044;-90
2023/01/25 09:14:01;;;;;;;27.73;14.10;;;0.30;99.90;;;;;;5109585;28;20058;-90
2023/01/25 09:16:27;;;;;;;30.55;13.40;;;0.30;99.90;;;;;;5119292;27;20497;-89
2023/01/25 09:18:55;;;;;;;36.90;15.93;;;0.30;99.90;;;;;;5129086;27;20063;-89
2023/01/25 09:21:20;;;;;;;28.13;13.15;;;0.30;99.90;;;;;;5104426;28;20550;-89
2023/01/25 09:23:49;;;;;;;29.80;15.13;;;0.30;99.90;;;;;;5128411;27;20040;-90
2023/01/25 09:26:15;;;;;;;33.38;17.17;;;0.30;99.90;;;;;;5119286;27;20042;-90
2023/01/25 09:28:42;;;;;;;28.80;14.68;;;0.30;99.90;;;;;;5094922;28;20613;-90
2023/01/25 09:31:12;;;;;;;31.48;15.57;;;0.30;99.90;;;;;;5120271;27;20144;-90
2023/01/25 09:33:39;;;;;;;31.75;17.10;;;0.30;99.90;;;;;;5114717;27;20058;-89
2023/01/25 09:36:05;;;;;;;32.53;17.08;;;0.30;99.90;;;;;;5114807;27;20050;-90
2023/01/25 09:38:31;;;;;;;31.60;15.65;;;0.40;99.90;;;;;;5109935;28;20043;-90
2023/01/25 09:41:21;;;;;;;26.23;13.50;;;0.40;99.90;;;;;;5094223;28;20239;-90
2023/01/25 09:43:59;;;;;;;29.15;14.02;;;0.30;99.90;;;;;;5145266;27;20043;-89
2023/01/25 09:46:28;;;;;;;26.98;14.18;;;0.30;99.90;;;;;;5114840;27;20044;-89
2023/01/25 09:49:23;;;;;;;31.48;16.48;;;0.30;99.90;;;;;;5131198;27;20043;-89
2023/01/25 09:52:20;;;;;;;28.35;14.07;;;0.20;99.90;;;;;;5075562;27;20047;-89
2023/01/25 09:54:46;;;;;;;33.00;15.77;;;0.20;99.90;;;;;;5114256;27;20415;-89
2023/01/25 09:57:32;;;;;;;29.85;14.90;;;0.20;99.90;;;;;;5113412;27;20043;-90
2023/01/25 10:00:02;;;;;;;22.35;11.23;;;0.30;99.90;;;;;;5131659;27;20035;-89
2023/01/25 10:02:40;;;;;;;30.05;14.30;;;0.30;99.90;;;;;;5127254;27;20100;-90
2023/01/25 10:05:20;;;;;;;31.35;15.63;;;0.30;99.90;;;;;;5094217;28;20442;-90
2023/01/25 10:08:03;;;;;;;29.77;15.00;;;0.30;99.90;;;;;;5093489;28;20489;-90
2023/01/25 10:10:34;;;;;;;;;;;0.30;99.90;;;;;;5110418;27;20512;-89
2023/01/25 10:13:01;;;;;;;29.63;14.02;;;0.30;99.90;;;;;;5073080;28;20278;-90
2023/01/25 10:15:37;;;;;;;30.17;14.73;;;0.30;99.90;;;;;;5120637;27;20043;-89
2023/01/25 10:18:14;;;;;;;34.30;14.15;;;0.30;99.90;;;;;;5093069;28;20032;-90
2023/01/25 10:20:54;;;;;;;26.52;13.02;;;0.40;99.90;;;;;;5126780;27;20043;-90
2023/01/25 10:23:19;;;;;;;28.08;14.25;;;0.40;99.90;;;;;;5093109;28;20122;-90
2023/01/25 10:25:53;;;;;;;26.95;14.32;;;0.40;99.90;;;;;;5127737;27;20118;-90
2023/01/25 10:28:39;;;;;;;28.38;14.65;;;0.30;99.90;;;;;;5144197;27;20058;-90
2023/01/25 10:31:21;;;;;;;18.58;10.23;;;0.30;99.90;;;;;;5093568;28;20043;-89
2023/01/25 10:33:48;;;;;;;32.50;16.38;;;0.30;99.90;;;;;;5106476;27;20560;-90
2023/01/25 10:36:17;;;;;;;30.60;15.80;;;0.30;99.90;;;;;;5113731;27;20039;-90
2023/01/25 10:38:56;;;;;;;27.80;13.35;;;0.30;99.90;;;;;;5112822;27;20044;-89
2023/01/25 10:41:40;;;;;;;31.40;16.23;;;0.30;99.90;;;;;;5113051;27;20496;-90
2023/01/25 10:44:26;;;;;;;32.00;15.65;;;0.30;99.90;;;;;;5113421;27;20433;-90
2023/01/25 10:47:16;;;;;;;18.20;8.85;;;0.30;99.90;;;;;;5124460;27;20035;-90
2023/01/25 10:49:48;;;;;;;30.33;15.20;;;0.30;99.90;;;;;;5093028;28;20615;-90
2023/01/25 10:52:15;;;;;;;31.15;14.63;;;0.30;99.90;;;;;;5099436;27;20064;-90
2023/01/25 10:54:41;;;;;;;32.55;16.77;;;0.30;99.90;;;;;;5094072;28;20178;-89
2023/01/25 10:57:11;;;;;;;31.52;15.88;;;0.30;99.90;;;;;;5126905;27;20770;-90
2023/01/25 10:59:37;;;;;;;28.73;14.00;;;0.40;99.90;;;;;;5124705;27;20046;-90
2023/01/25 11:02:25;;;;;;;33.22;17.27;;;0.30;99.90;;;;;;5129788;27;20118;-90
2023/01/25 11:04:51;;;;;;;28.38;15.55;;;0.30;99.90;;;;;;5099411;27;20038;-89
2023/01/25 11:07:27;;;;;;;30.38;16.33;;;0.30;99.90;;;;;;5113743;27;20178;-90
2023/01/25 11:09:53;;;;;;;29.90;15.07;;;0.30;99.90;;;;;;5093299;28;20046;-89
2023/01/25 11:12:20;;;;;;;27.48;13.05;;;0.30;99.90;;;;;;5117555;27;20043;-89
2023/01/25 11:14:50;;;;;;;29.50;14.75;;;0.30;99.90;;;;;;5108025;28;20500;-89
2023/01/25 11:17:31;;;;;;;30.30;16.17;;;0.30;99.90;;;;;;5102764;28;20038;-88
2023/01/25 11:20:18;;;;;;;29.08;14.40;;;0.30;99.90;;;;;;5109031;28;20051;-88
2023/01/25 11:22:53;;;;;;;33.88;17.85;;;0.20;99.90;;;;;;5117428;28;20036;-87
2023/01/25 11:25:32;;;;;;;36.63;18.65;;;0.20;99.90;;;;;;5109509;28;20089;-89
2023/01/25 11:28:21;;;;;;;31.95;16.42;;;0.20;99.90;;;;;;5117317;28;20043;-88
2023/01/25 11:30:49;;;;;;;29.85;14.10;;;0.20;99.90;;;;;;5112821;28;20064;-89
2023/01/25 11:33:17;;;;;;;32.90;15.73;;;0.20;99.90;;;;;;5107256;28;20063;-90
2023/01/25 11:36:12;;;;;;;27.38;13.48;;;0.20;99.90;;;;;;5108517;28;20043;-89
2023/01/25 11:38:48;;;;;;;29.63;13.18;;;0.20;99.90;;;;;;5110561;28;20122;-89
2023/01/25 11:41:30;;;;;;;27.08;12.90;;;0.20;99.90;;;;;;5113098;28;20492;-89
2023/01/25 11:43:59;;;;;;;27.52;14.13;;;0.20;99.90;;;;;;5088360;28;20047;-90
2023/01/25 11:46:33;;;;;;;29.88;14.80;;;0.10;99.90;;;;;;5109038;28;20085;-88
2023/01/25 11:49:17;;;;;;;32.25;15.30;;;0.20;99.90;;;;;;5129822;28;20043;-88
2023/01/25 11:52:07;;;;;;;32.17;15.88;;;0.10;99.90;;;;;;5128610;28;20039;-90
2023/01/25 11:54:33;;;;;;;29.52;14.48;;;0.20;99.90;;;;;;5111731;28;20039;-90
2023/01/25 11:56:59;;;;;;;29.13;15.15;;;0.20;99.90;;;;;;5111618;28;20039;-89
2023/01/25 12:00:00;;;;;;;29.30;14.35;;;0.10;99.90;;;;;;5112500;28;20088;-90
2023/01/25 12:02:57;;;;;;;35.17;16.48;;;0.20;99.90;;;;;;5120598;28;20506;-90
2023/01/25 12:05:42;;;;;;;35.55;16.38;;;0.10;99.90;;;;;;5091577;28;20043;-90
2023/01/25 12:08:25;;;;;;;29.58;15.23;;;0.10;99.90;;;;;;5145655;27;20050;-91
2023/01/25 12:11:33;;;;;;;32.30;13.80;;;0.10;99.90;;;;;;5095944;28;20059;-92
2023/01/25 12:14:23;;;;;;;24.77;12.77;;;0.10;99.90;;;;;;5093069;28;20513;-91
2023/01/25 12:17:36;;;;;;;34.50;16.40;;;0.20;99.90;;;;;;5090664;28;20066;-90
2023/01/25 12:20:41;;;;;;;32.40;15.93;;;0.10;99.90;;;;;;5060870;28;20043;-90
2023/01/25 12:23:25;;;;;;;33.13;15.95;;;0.10;99.90;;;;;;5089848;28;20039;-90
2023/01/25 12:26:26;;;;;;;32.67;16.45;;;0.10;99.90;;;;;;5125335;27;20035;-90
2023/01/25 12:29:01;;;;;;;32.83;17.08;;;0.10;99.90;;;;;;5097735;28;20086;-90
2023/01/25 12:31:47;;;;;;;34.75;17.50;;;0.10;99.90;;;;;;5094397;28;20031;-90
2023/01/25 12:34:23;;;;;;;34.70;16.17;;;0.10;99.90;;;;;;5097185;28;20051;-91
2023/01/25 12:36:49;;;;;;;35.00;16.60;;;0.10;99.90;;;;;;5093639;28;20417;-91
2023/01/25 12:39:29;;;;;;;30.85;15.45;;;0.10;99.90;;;;;;5101933;28;20052;-91
2023/01/25 12:42:11;;;;;;;28.38;14.07;;;0.10;99.90;;;;;;5095234;28;20586;-90
2023/01/25 12:44:58;;;;;;;31.90;14.80;;;0.10;99.90;;;;;;5090992;27;20027;-89
2023/01/25 12:47:35;;;;;;;32.38;15.35;;;0.10;99.90;;;;;;5111865;27;20070;-90
2023/01/25 12:50:15;;;;;;;26.92;13.85;;;0.00;99.90;;;;;;5093589;28;20067;-89
2023/01/25 12:53:05;;;;;;;32.60;16.50;;;0.10;99.90;;;;;;5092724;28;20236;-90